Time;durP1;ratioP1;P1;durP2;ratioP2;P2;SDS_P1;SDS_P2;PMS_P1;PMS_P2;Temp;Humidity;BMP_temperature;BMP_pressure;BME280_temperature;BME280_humidity;BME280_pressure;Samples;Min_cycle;Max_cycle;Signal;HPM_P1;HPM_P2
2021/04/21 00:02:17;;;;;;;11.30;8.23;;;10.30;70.40;;;;;;5050593;28;20459;-49
2021/04/21 00:04:46;;;;;;;9.47;7.43;;;10.20;70.40;;;;;;5050469;28;20494;-49
2021/04/21 00:07:17;;;;;;;15.60;8.73;;;10.20;70.40;;;;;;5049587;28;20549;-49
2021/04/21 00:09:49;;;;;;;13.50;8.87;;;10.10;70.60;;;;;;5045014;28;20444;-48
2021/04/21 00:12:20;;;;;;;8.10;7.10;;;10.10;70.60;;;;;;5049019;28;20469;-49
2021/04/21 00:14:47;;;;;;;9.00;7.60;;;10.00;70.60;;;;;;5047149;28;20494;-49
2021/04/21 00:17:14;;;;;;;9.90;7.87;;;10.00;70.70;;;;;;5051180;28;20473;-49
2021/04/21 00:19:43;;;;;;;9.87;7.50;;;10.00;70.70;;;;;;5048193;28;20818;-49
2021/04/21 00:22:13;;;;;;;9.90;6.70;;;9.90;70.70;;;;;;5050102;28;20900;-49
2021/04/21 00:24:41;;;;;;;9.67;7.10;;;9.90;70.70;;;;;;5049851;28;20492;-49
2021/04/21 00:27:08;;;;;;;9.00;6.80;;;9.80;70.60;;;;;;5048632;28;20517;-49
2021/04/21 00:29:40;;;;;;;8.43;7.20;;;9.80;70.70;;;;;;5045851;28;20459;-49
2021/04/21 00:32:08;;;;;;;7.93;6.30;;;9.80;70.70;;;;;;5064705;28;20792;-49
2021/04/21 00:34:37;;;;;;;9.00;7.30;;;9.70;70.70;;;;;;5049041;28;20462;-49
2021/04/21 00:37:05;;;;;;;7.83;6.40;;;9.70;70.70;;;;;;5048048;28;20450;-49
2021/04/21 00:39:34;;;;;;;10.00;7.63;;;9.70;70.90;;;;;;5047848;28;20497;-49
2021/04/21 00:42:09;;;;;;;9.10;7.37;;;9.60;71.00;;;;;;5048454;28;20469;-49
2021/04/21 00:45:15;;;;;;;9.53;7.23;;;9.60;71.20;;;;;;5050490;28;20482;-49
2021/04/21 00:47:55;;;;;;;9.90;7.70;;;9.60;71.20;;;;;;5045473;28;20516;-49
2021/04/21 00:50:38;;;;;;;13.50;8.00;;;9.50;71.20;;;;;;5043525;28;20544;-48
2021/04/21 00:53:20;;;;;;;10.17;8.00;;;9.50;71.50;;;;;;5049351;28;20816;-49
2021/04/21 00:56:01;;;;;;;8.40;6.97;;;9.40;71.40;;;;;;5046621;28;20465;-49
2021/04/21 00:58:43;;;;;;;10.60;7.73;;;9.40;71.50;;;;;;5050820;28;20462;-49
2021/04/21 01:01:11;;;;;;;9.53;7.07;;;9.40;71.90;;;;;;5048056;28;20561;-49
2021/04/21 01:03:40;;;;;;;9.00;7.37;;;9.40;72.00;;;;;;5046477;28;20622;-48
2021/04/21 01:06:18;;;;;;;9.60;7.40;;;9.40;71.80;;;;;;5045016;28;20936;-49
2021/04/21 01:08:54;;;;;;;9.60;7.23;;;9.40;71.90;;;;;;5044534;28;20990;-49
2021/04/21 01:11:34;;;;;;;12.53;7.90;;;9.30;71.90;;;;;;5048001;28;20545;-49
2021/04/21 01:14:08;;;;;;;7.93;7.13;;;9.30;71.90;;;;;;5040569;28;20474;-49
2021/04/21 01:16:36;;;;;;;10.40;7.83;;;9.20;71.90;;;;;;5049049;28;20526;-48
2021/04/21 01:19:12;;;;;;;11.20;8.03;;;9.20;71.90;;;;;;5048077;28;20961;-49
2021/04/21 01:21:47;;;;;;;10.13;7.87;;;9.20;72.10;;;;;;5045761;28;20495;-48
2021/04/21 01:24:34;;;;;;;10.13;8.17;;;9.20;72.30;;;;;;5047553;28;20486;-49
2021/04/21 01:27:03;;;;;;;8.53;7.33;;;9.10;72.40;;;;;;5046681;28;20978;-48
2021/04/21 01:29:33;;;;;;;11.10;7.93;;;9.10;72.60;;;;;;5046741;28;20466;-48
2021/04/21 01:32:17;;;;;;;10.20;7.87;;;9.10;72.70;;;;;;5045945;28;20482;-48
2021/04/21 01:34:45;;;;;;;9.83;7.90;;;9.10;72.90;;;;;;5063161;28;20919;-48
2021/04/21 01:37:16;;;;;;;10.87;7.67;;;9.00;73.00;;;;;;5047361;28;20981;-48
2021/04/21 01:39:48;;;;;;;12.27;8.03;;;9.00;73.00;;;;;;5046971;28;20494;-48
2021/04/21 01:42:16;;;;;;;11.67;8.00;;;9.00;73.10;;;;;;5048799;28;20454;-48
2021/04/21 01:44:45;;;;;;;9.73;7.80;;;9.00;73.20;;;;;;5047741;28;20479;-48
2021/04/21 01:47:18;;;;;;;10.80;7.97;;;9.00;73.30;;;;;;5062137;28;20787;-48
2021/04/21 01:49:54;;;;;;;9.53;7.03;;;8.90;73.40;;;;;;5046643;28;20516;-48
2021/04/21 01:52:41;;;;;;;9.30;7.90;;;8.90;73.50;;;;;;5062841;28;20958;-48
2021/04/21 01:55:19;;;;;;;10.63;8.43;;;8.90;73.60;;;;;;5043336;28;20470;-48
2021/04/21 01:58:08;;;;;;;13.57;9.20;;;8.90;73.60;;;;;;5042613;28;20455;-48
2021/04/21 02:00:41;;;;;;;11.30;7.37;;;8.90;73.70;;;;;;5046874;28;20462;-48
2021/04/21 02:03:29;;;;;;;9.83;8.20;;;8.90;73.70;;;;;;5044472;28;20458;-48
2021/04/21 02:06:18;;;;;;;11.70;8.80;;;8.80;73.80;;;;;;5045985;28;20490;-48
2021/04/21 02:09:17;;;;;;;17.70;8.80;;;8.80;73.80;;;;;;5046727;28;21117;-48
2021/04/21 02:12:01;;;;;;;12.03;8.80;;;8.80;73.80;;;;;;5037371;28;20812;-48
2021/04/21 02:14:35;;;;;;;9.83;8.23;;;8.80;73.90;;;;;;5044386;28;20502;-48
2021/04/21 02:17:04;;;;;;;9.23;8.13;;;8.80;74.00;;;;;;5048777;28;20496;-49
2021/04/21 02:20:04;;;;;;;14.43;8.60;;;8.80;74.10;;;;;;5043162;28;20506;-48
2021/04/21 02:22:51;;;;;;;11.00;8.40;;;8.70;74.30;;;;;;5043738;28;20516;-48
2021/04/21 02:25:32;;;;;;;11.77;8.07;;;8.70;74.40;;;;;;5041751;28;20491;-48
2021/04/21 02:28:14;;;;;;;11.77;9.20;;;8.70;74.40;;;;;;5043433;28;20458;-46
2021/04/21 02:30:52;;;;;;;15.70;9.53;;;8.70;74.40;;;;;;5046577;28;21026;-46
2021/04/21 02:33:51;;;;;;;12.30;8.27;;;8.70;74.50;;;;;;5044481;28;20453;-46
2021/04/21 02:36:29;;;;;;;12.50;9.20;;;8.60;74.50;;;;;;5045496;28;20477;-46
2021/04/21 02:39:17;;;;;;;11.17;8.10;;;8.60;74.50;;;;;;5046512;28;20508;-46
2021/04/21 02:41:55;;;;;;;11.00;8.37;;;8.60;74.60;;;;;;5046046;28;20464;-46
2021/04/21 02:44:59;;;;;;;11.40;7.77;;;8.60;74.60;;;;;;5045270;28;20573;-46
2021/04/21 02:47:38;;;;;;;11.10;8.07;;;8.60;74.60;;;;;;5047058;28;20458;-47
2021/04/21 02:50:08;;;;;;;10.50;8.37;;;8.60;74.70;;;;;;5045369;28;20463;-46
2021/04/21 02:52:55;;;;;;;10.83;8.60;;;8.60;74.80;;;;;;5045101;28;20974;-46
2021/04/21 02:55:55;;;;;;;10.60;8.10;;;8.50;74.90;;;;;;5043251;28;20473;-48
2021/04/21 02:59:12;;;;;;;11.80;8.43;;;8.50;74.90;;;;;;5044712;28;20472;-48
2021/04/21 03:01:54;;;;;;;10.60;7.83;;;8.50;74.90;;;;;;4999051;28;21057;-48
2021/04/21 03:04:35;;;;;;;9.77;7.73;;;8.50;74.90;;;;;;5046921;28;20502;-48
2021/04/21 03:07:05;;;;;;;11.73;8.00;;;8.40;75.00;;;;;;5044196;28;20463;-48
2021/04/21 03:09:49;;;;;;;10.53;8.27;;;8.40;74.90;;;;;;5045508;28;20811;-48
2021/04/21 03:12:21;;;;;;;12.00;8.47;;;8.40;74.90;;;;;;5044112;28;20712;-48
2021/04/21 03:14:53;;;;;;;10.23;8.87;;;8.40;75.00;;;;;;5041921;28;20451;-48
2021/04/21 03:17:20;;;;;;;11.07;8.03;;;8.30;75.00;;;;;;5045606;28;20569;-48
2021/04/21 03:19:52;;;;;;;13.47;9.40;;;8.30;75.20;;;;;;5057828;28;20465;-48
2021/04/21 03:22:21;;;;;;;12.40;8.70;;;8.30;75.30;;;;;;5047051;28;20471;-48
2021/04/21 03:24:57;;;;;;;11.00;8.90;;;8.30;75.30;;;;;;5047961;28;20478;-48
2021/04/21 03:27:27;;;;;;;14.13;9.63;;;8.30;75.30;;;;;;5043576;28;20462;-48
2021/04/21 03:29:55;;;;;;;10.13;8.83;;;8.30;75.70;;;;;;5045121;28;20445;-48
2021/04/21 03:32:28;;;;;;;16.20;9.40;;;8.30;75.70;;;;;;5044211;28;20963;-48
2021/04/21 03:34:58;;;;;;;12.60;8.83;;;8.20;75.70;;;;;;5046004;28;20498;-48
2021/04/21 03:37:51;;;;;;;12.17;9.13;;;8.20;75.60;;;;;;5045402;28;20829;-48
2021/04/21 03:40:18;;;;;;;15.50;8.90;;;8.20;75.60;;;;;;5046423;28;20824;-48
2021/04/21 03:42:45;;;;;;;11.33;8.90;;;8.20;75.50;;;;;;5046617;28;20458;-48
2021/04/21 03:45:12;;;;;;;16.07;10.40;;;8.20;75.60;;;;;;5044388;28;20486;-48
2021/04/21 03:47:39;;;;;;;13.17;9.53;;;8.20;75.60;;;;;;5047036;28;20458;-48
2021/04/21 03:50:10;;;;;;;13.13;9.93;;;8.20;75.60;;;;;;5046816;28;20493;-48
2021/04/21 03:52:39;;;;;;;13.33;8.43;;;8.10;75.60;;;;;;5044308;28;20463;-48
2021/04/21 03:55:07;;;;;;;16.43;9.67;;;8.10;75.50;;;;;;5028480;28;20466;-48
2021/04/21 03:57:37;;;;;;;13.23;8.60;;;8.10;75.60;;;;;;5045249;28;20458;-48
2021/04/21 04:00:05;;;;;;;13.40;10.97;;;8.00;75.60;;;;;;5043895;28;20469;-48
2021/04/21 04:02:37;;;;;;;12.47;8.83;;;8.00;75.60;;;;;;5042916;28;20493;-48
2021/04/21 04:05:07;;;;;;;13.33;9.60;;;8.00;75.70;;;;;;5042049;28;20482;-48
2021/04/21 04:07:40;;;;;;;15.73;10.63;;;8.00;75.80;;;;;;5062795;28;20494;-48
2021/04/21 04:10:14;;;;;;;12.87;9.57;;;7.90;75.80;;;;;;5041362;28;20447;-48
2021/04/21 04:12:43;;;;;;;15.60;9.80;;;7.90;75.80;;;;;;5045924;28;20489;-48
2021/04/21 04:15:13;;;;;;;15.13;9.30;;;7.90;75.80;;;;;;5043292;28;20504;-48
2021/04/21 04:17:45;;;;;;;15.10;10.03;;;7.90;75.80;;;;;;5043610;28;20473;-48
2021/04/21 04:20:14;;;;;;;15.83;9.93;;;7.90;75.80;;;;;;5045001;28;20458;-48
2021/04/21 04:22:44;;;;;;;12.87;8.83;;;7.80;75.80;;;;;;5044101;28;20994;-48
2021/04/21 04:25:17;;;;;;;14.10;10.80;;;7.80;75.90;;;;;;5045549;28;21062;-48
2021/04/21 04:27:45;;;;;;;14.43;10.23;;;7.70;76.00;;;;;;5049553;28;20962;-48
2021/04/21 04:30:13;;;;;;;13.67;10.20;;;7.70;76.10;;;;;;5048995;28;20544;-48
2021/04/21 04:32:41;;;;;;;11.63;9.63;;;7.70;76.20;;;;;;5049894;28;20537;-48
2021/04/21 04:35:10;;;;;;;12.13;9.03;;;7.70;76.20;;;;;;5046007;28;20796;-48
2021/04/21 04:37:40;;;;;;;12.27;9.10;;;7.70;76.20;;;;;;5051350;28;20468;-48
2021/04/21 04:40:13;;;;;;;12.77;8.90;;;7.70;76.20;;;;;;5046910;28;20459;-48
2021/04/21 04:42:39;;;;;;;11.37;8.87;;;7.70;76.30;;;;;;5048960;28;20493;-48
2021/04/21 04:45:07;;;;;;;12.30;8.97;;;7.60;76.30;;;;;;5046855;28;20486;-48
2021/04/21 04:47:45;;;;;;;11.60;9.13;;;7.60;76.30;;;;;;5047011;28;20464;-48
2021/04/21 04:50:16;;;;;;;12.17;7.83;;;7.60;76.30;;;;;;5048688;28;20462;-48
2021/04/21 04:52:47;;;;;;;10.67;8.30;;;7.60;76.30;;;;;;5049896;28;20462;-48
2021/04/21 04:55:15;;;;;;;11.27;8.37;;;7.60;76.30;;;;;;5052625;28;20561;-48
2021/04/21 04:57:48;;;;;;;11.63;8.50;;;7.60;76.30;;;;;;5048779;28;20466;-48
2021/04/21 05:00:17;;;;;;;13.27;8.87;;;7.60;76.40;;;;;;5049670;28;20836;-48
2021/04/21 05:02:53;;;;;;;13.30;10.30;;;7.60;76.40;;;;;;5045648;28;20486;-48
2021/04/21 05:05:21;;;;;;;11.67;9.70;;;7.50;76.50;;;;;;5046820;28;21004;-48
2021/04/21 05:08:06;;;;;;;15.90;9.70;;;7.50;76.60;;;;;;5049144;28;20804;-48
2021/04/21 05:10:43;;;;;;;12.20;8.37;;;7.60;76.70;;;;;;5044383;28;20450;-48
2021/04/21 05:13:14;;;;;;;14.53;9.70;;;7.60;76.70;;;;;;5047036;28;20967;-48
2021/04/21 05:15:53;;;;;;;14.10;9.43;;;7.60;76.90;;;;;;5047052;28;20482;-48
2021/04/21 05:18:26;;;;;;;18.17;9.77;;;7.60;76.90;;;;;;5043887;28;20468;-48
2021/04/21 05:21:25;;;;;;;12.30;8.57;;;7.60;76.90;;;;;;5045744;28;20975;-48
2021/04/21 05:24:35;;;;;;;13.23;8.70;;;7.70;77.00;;;;;;5049566;28;20462;-48
2021/04/21 05:27:22;;;;;;;14.13;10.23;;;7.70;77.10;;;;;;5046009;28;20466;-48
2021/04/21 05:30:26;;;;;;;11.33;9.80;;;7.70;77.10;;;;;;5045921;28;20982;-49
2021/04/21 05:33:07;;;;;;;13.13;8.70;;;7.70;77.20;;;;;;5063947;28;20459;-48
2021/04/21 05:35:55;;;;;;;12.07;8.53;;;7.80;77.40;;;;;;5045852;28;20454;-48
2021/04/21 05:38:46;;;;;;;10.00;8.90;;;7.80;77.50;;;;;;5047317;28;20490;-48
2021/04/21 05:41:49;;;;;;;13.73;9.87;;;7.90;77.70;;;;;;5046049;28;20458;-48
2021/04/21 05:44:24;;;;;;;15.93;10.20;;;8.00;77.80;;;;;;5045486;28;20490;-47
2021/04/21 05:47:15;;;;;;;16.83;9.20;;;8.00;77.70;;;;;;5043864;28;20458;-47
2021/04/21 05:50:08;;;;;;;11.90;9.23;;;8.10;77.70;;;;;;5047797;28;20813;-47
2021/04/21 05:53:12;;;;;;;13.73;10.23;;;8.20;77.70;;;;;;5046588;28;20802;-46
2021/04/21 05:55:41;;;;;;;13.57;10.63;;;8.30;77.80;;;;;;5045662;28;20462;-47
2021/04/21 05:58:29;;;;;;;16.27;10.03;;;8.30;77.70;;;;;;5046549;28;20470;-47
2021/04/21 06:01:16;;;;;;;14.20;9.97;;;8.40;77.60;;;;;;5043611;28;20465;-47
2021/04/21 06:03:50;;;;;;;11.30;8.20;;;8.50;77.40;;;;;;5041814;28;20463;-47
2021/04/21 06:06:16;;;;;;;11.07;9.10;;;8.70;76.20;;;;;;5043955;28;20489;-47
2021/04/21 06:08:42;;;;;;;18.53;11.30;;;8.80;76.00;;;;;;5045704;28;20450;-47
2021/04/21 06:11:26;;;;;;;15.93;11.73;;;8.90;75.60;;;;;;5045848;28;20454;-47
2021/04/21 06:14:01;;;;;;;13.63;10.47;;;8.90;75.50;;;;;;5047421;28;20458;-47
2021/04/21 06:16:29;;;;;;;17.17;10.67;;;9.00;75.20;;;;;;5043217;28;21041;-47
2021/04/21 06:19:00;;;;;;;16.43;10.80;;;9.10;75.00;;;;;;5055932;28;20478;-47
2021/04/21 06:21:29;;;;;;;14.33;10.97;;;9.20;74.90;;;;;;5046126;28;20554;-47
2021/04/21 06:23:57;;;;;;;13.00;9.93;;;9.30;74.80;;;;;;5047633;28;20482;-47
2021/04/21 06:26:30;;;;;;;12.77;11.07;;;9.40;74.70;;;;;;5049140;28;20458;-47
2021/04/21 06:29:05;;;;;;;13.23;10.20;;;9.50;74.60;;;;;;5032980;28;20437;-47
2021/04/21 06:31:43;;;;;;;14.50;10.40;;;9.60;74.50;;;;;;5064165;28;20456;-47
2021/04/21 06:34:11;;;;;;;12.47;10.03;;;9.70;74.40;;;;;;5041588;28;20463;-47
2021/04/21 06:36:44;;;;;;;17.90;11.40;;;9.80;73.90;;;;;;5046200;28;20512;-47
2021/04/21 06:39:12;;;;;;;11.80;10.37;;;9.90;73.30;;;;;;5042241;28;20461;-47
2021/04/21 06:41:39;;;;;;;15.93;11.70;;;10.00;73.20;;;;;;5044440;28;20549;-47
2021/04/21 06:44:06;;;;;;;12.97;10.60;;;10.10;73.30;;;;;;5044562;28;21046;-47
2021/04/21 06:46:32;;;;;;;14.23;11.20;;;10.20;73.40;;;;;;5046255;28;20458;-47
2021/04/21 06:49:01;;;;;;;14.40;12.17;;;10.30;73.20;;;;;;5045215;28;20455;-47
2021/04/21 06:51:30;;;;;;;13.60;11.77;;;10.40;73.20;;;;;;5043355;28;20468;-47
2021/04/21 06:53:57;;;;;;;17.70;10.60;;;10.60;73.00;;;;;;5043389;28;21004;-47
2021/04/21 06:56:32;;;;;;;12.10;10.13;;;10.70;72.80;;;;;;5045706;28;20494;-47
2021/04/21 06:59:00;;;;;;;13.00;10.80;;;10.90;72.40;;;;;;5043337;28;20491;-47
2021/04/21 07:01:30;;;;;;;14.43;10.77;;;11.00;72.00;;;;;;5042158;28;20553;-47
2021/04/21 07:04:19;;;;;;;17.40;12.23;;;11.20;71.50;;;;;;5046371;28;20467;-47
2021/04/21 07:06:49;;;;;;;18.53;12.07;;;11.30;70.90;;;;;;5044929;28;20545;-47
2021/04/21 07:09:18;;;;;;;16.10;12.83;;;11.50;70.50;;;;;;5041448;28;20457;-47
2021/04/21 07:11:46;;;;;;;17.93;12.60;;;11.60;70.10;;;;;;5042481;28;20467;-47
2021/04/21 07:14:18;;;;;;;14.40;12.00;;;11.80;70.00;;;;;;5050308;28;20529;-47
2021/04/21 07:16:44;;;;;;;18.03;12.47;;;12.00;69.80;;;;;;5042568;28;20569;-47
2021/04/21 07:19:14;;;;;;;14.80;11.67;;;12.20;69.60;;;;;;5044084;28;20834;-47
2021/04/21 07:21:42;;;;;;;17.60;11.87;;;12.30;69.30;;;;;;5045389;28;20480;-47
2021/04/21 07:24:14;;;;;;;17.13;12.37;;;12.50;69.00;;;;;;5040834;28;20938;-47
2021/04/21 07:26:45;;;;;;;17.47;12.67;;;12.80;68.10;;;;;;5045451;28;20472;-47
2021/04/21 07:29:23;;;;;;;13.80;11.60;;;13.00;67.30;;;;;;5046313;28;20466;-47
2021/04/21 07:31:51;;;;;;;13.17;11.00;;;13.20;66.60;;;;;;5044991;28;20944;-47
2021/04/21 07:34:33;;;;;;;16.53;12.67;;;13.40;66.20;;;;;;5046827;28;20920;-47
2021/04/21 07:37:00;;;;;;;15.83;12.00;;;13.60;66.00;;;;;;5047417;28;20530;-47
2021/04/21 07:39:32;;;;;;;15.27;12.00;;;13.80;65.20;;;;;;5044824;28;20460;-47
2021/04/21 07:41:58;;;;;;;14.97;11.80;;;14.00;64.10;;;;;;5044649;28;20537;-47
2021/04/21 07:44:37;;;;;;;16.07;13.13;;;14.20;63.70;;;;;;5044057;28;20469;-47
2021/04/21 07:47:06;;;;;;;14.07;11.40;;;14.40;63.20;;;;;;5038815;28;20467;-47
2021/04/21 07:49:48;;;;;;;14.50;12.23;;;14.60;62.70;;;;;;5047409;28;20460;-47
2021/04/21 07:52:34;;;;;;;16.10;12.33;;;14.80;62.10;;;;;;5041427;28;20467;-47
2021/04/21 07:55:20;;;;;;;19.50;13.20;;;15.00;61.10;;;;;;5046835;28;20478;-47
2021/04/21 07:58:03;;;;;;;16.80;11.70;;;15.10;60.80;;;;;;5044057;28;20477;-47
2021/04/21 08:00:36;;;;;;;15.97;13.30;;;15.40;60.00;;;;;;5050743;28;20515;-47
2021/04/21 08:03:03;;;;;;;17.13;12.73;;;15.60;59.80;;;;;;5048664;28;20866;-47
2021/04/21 08:05:31;;;;;;;14.40;12.30;;;15.80;59.70;;;;;;5046747;28;20561;-47
2021/04/21 08:08:02;;;;;;;15.40;12.33;;;15.90;59.30;;;;;;5050664;28;20455;-47
2021/04/21 08:10:33;;;;;;;16.10;12.67;;;16.10;58.70;;;;;;5051218;28;20461;-47
2021/04/21 08:13:01;;;;;;;16.17;12.30;;;16.30;58.10;;;;;;5046533;28;20462;-47
2021/04/21 08:15:33;;;;;;;12.20;10.80;;;16.50;57.80;;;;;;5047505;28;20578;-47
2021/04/21 08:18:13;;;;;;;13.03;10.90;;;16.60;57.40;;;;;;5053008;28;20553;-47
2021/04/21 08:20:44;;;;;;;16.10;11.77;;;16.80;56.90;;;;;;5048344;28;20460;-47
2021/04/21 08:23:31;;;;;;;13.13;10.90;;;16.90;56.60;;;;;;5044566;28;20585;-47
2021/04/21 08:25:57;;;;;;;15.80;12.27;;;17.10;55.80;;;;;;5047402;28;20490;-47
2021/04/21 08:28:24;;;;;;;13.53;11.10;;;17.20;56.40;;;;;;5048068;28;20458;-47
2021/04/21 08:31:01;;;;;;;14.17;12.20;;;17.30;54.60;;;;;;5049402;28;20462;-47
2021/04/21 08:33:29;;;;;;;15.17;11.60;;;17.50;54.60;;;;;;5048348;28;20571;-45
2021/04/21 08:35:55;;;;;;;14.30;11.50;;;17.70;54.20;;;;;;5051756;28;21066;-48
2021/04/21 08:38:21;;;;;;;17.27;11.80;;;17.90;53.70;;;;;;5050682;28;20453;-47
2021/04/21 08:40:50;;;;;;;14.33;11.27;;;18.10;53.30;;;;;;5050451;28;20450;-48
2021/04/21 08:43:19;;;;;;;14.43;11.10;;;18.30;52.20;;;;;;5049533;28;20454;-48
2021/04/21 08:45:46;;;;;;;14.07;11.43;;;18.50;51.80;;;;;;5048469;28;21180;-47
2021/04/21 08:48:13;;;;;;;14.50;12.87;;;18.80;51.30;;;;;;5030736;28;20574;-46
2021/04/21 08:50:40;;;;;;;14.37;11.63;;;19.00;50.60;;;;;;5049138;28;20952;-46
2021/04/21 08:53:09;;;;;;;15.53;12.97;;;19.30;50.00;;;;;;5045088;28;20545;-46
2021/04/21 08:55:38;;;;;;;14.70;11.47;;;19.60;49.30;;;;;;5050342;28;20458;-46
2021/04/21 08:58:08;;;;;;;14.17;12.67;;;19.80;49.20;;;;;;5048961;28;20465;-46
2021/04/21 09:00:36;;;;;;;14.53;11.83;;;20.10;48.40;;;;;;5047964;28;20534;-46
2021/04/21 09:03:02;;;;;;;13.00;11.20;;;20.30;47.60;;;;;;5047235;28;20450;-46
2021/04/21 09:05:28;;;;;;;16.00;11.70;;;20.60;47.10;;;;;;5050287;28;20565;-48
2021/04/21 09:07:55;;;;;;;16.37;13.20;;;20.90;46.70;;;;;;5046803;28;20486;-46
2021/04/21 09:10:21;;;;;;;18.90;15.70;;;21.20;46.10;;;;;;5047551;28;20472;-48
2021/04/21 09:12:48;;;;;;;17.20;13.60;;;21.50;45.20;;;;;;5050013;28;20458;-47
2021/04/21 09:15:17;;;;;;;18.17;13.57;;;21.70;45.40;;;;;;5062363;28;20482;-47
2021/04/21 09:17:47;;;;;;;18.60;16.53;;;21.90;45.50;;;;;;5044126;28;20462;-47
2021/04/21 09:20:15;;;;;;;17.37;15.17;;;22.20;44.90;;;;;;5043573;28;20466;-48
2021/04/21 09:23:14;;;;;;;19.07;15.90;;;22.60;44.20;;;;;;5044815;28;20562;-47
2021/04/21 09:25:50;;;;;;;24.30;19.50;;;23.00;43.50;;;;;;5048084;28;20522;-46
2021/04/21 09:28:20;;;;;;;23.10;19.23;;;23.30;42.60;;;;;;5044389;28;20469;-46
2021/04/21 09:30:59;;;;;;;22.27;19.67;;;23.50;41.80;;;;;;5049357;28;20466;-46
2021/04/21 09:33:27;;;;;;;24.37;19.50;;;23.70;42.00;;;;;;5044616;28;20993;-46
2021/04/21 09:35:54;;;;;;;26.00;20.97;;;23.90;41.40;;;;;;5050703;28;20455;-46
2021/04/21 09:38:25;;;;;;;27.17;22.03;;;;;;;;;;5051429;28;20439;-46
2021/04/21 09:41:01;;;;;;;25.57;20.80;;;24.20;40.80;;;;;;5049863;28;20450;-46
2021/04/21 09:43:34;;;;;;;24.50;21.40;;;24.30;40.60;;;;;;5047241;28;20457;-46
2021/04/21 09:46:03;;;;;;;27.40;21.73;;;24.40;40.30;;;;;;5041921;28;20493;-46
2021/04/21 09:48:33;;;;;;;24.97;22.30;;;24.60;39.90;;;;;;5048369;28;20453;-46
2021/04/21 09:51:02;;;;;;;28.07;23.63;;;24.80;39.70;;;;;;5051392;28;20871;-47
2021/04/21 09:53:40;;;;;;;29.47;22.80;;;25.20;39.10;;;;;;5052779;28;20450;-47
2021/04/21 09:56:09;;;;;;;32.50;24.60;;;25.40;39.10;;;;;;5047322;28;20457;-46
2021/04/21 09:58:38;;;;;;;29.57;25.00;;;25.60;38.40;;;;;;5048987;28;20461;-46
2021/04/21 10:01:19;;;;;;;24.40;20.67;;;25.90;37.50;;;;;;5030720;28;20458;-47
2021/04/21 10:03:47;;;;;;;21.50;19.27;;;25.90;38.20;;;;;;5044472;28;20457;-47
2021/04/21 10:06:20;;;;;;;28.40;22.60;;;25.90;38.00;;;;;;5048334;28;20477;-47
2021/04/21 10:08:48;;;;;;;27.03;23.23;;;25.90;37.40;;;;;;5043952;28;20476;-47
2021/04/21 10:11:18;;;;;;;30.70;22.77;;;25.90;36.70;;;;;;5043363;28;21029;-46
2021/04/21 10:13:52;;;;;;;26.47;22.70;;;25.70;37.20;;;;;;5046731;28;20961;-47
2021/04/21 10:16:20;;;;;;;28.33;21.33;;;25.30;37.60;;;;;;5045093;28;20495;-46
2021/04/21 10:18:48;;;;;;;26.90;21.40;;;25.20;38.00;;;;;;5043771;28;20465;-46
2021/04/21 10:21:17;;;;;;;28.90;23.73;;;25.30;37.60;;;;;;5050518;28;20458;-47
2021/04/21 10:23:45;;;;;;;25.90;21.40;;;25.60;37.80;;;;;;5047440;28;20986;-49
2021/04/21 10:26:13;;;;;;;23.77;19.73;;;25.80;37.30;;;;;;5043581;28;20493;-50
2021/04/21 10:28:41;;;;;;;22.27;19.80;;;26.00;37.00;;;;;;5044350;28;20457;-50
2021/04/21 10:31:11;;;;;;;20.77;18.50;;;26.30;36.50;;;;;;5049911;28;20454;-50
2021/04/21 10:33:38;;;;;;;20.37;17.90;;;26.40;36.40;;;;;;5048186;28;20930;-50
2021/04/21 10:36:06;;;;;;;22.30;18.27;;;26.50;35.90;;;;;;5048707;28;20465;-50
2021/04/21 10:38:34;;;;;;;24.97;19.63;;;26.40;35.70;;;;;;5046681;28;20450;-50
2021/04/21 10:41:19;;;;;;;20.50;17.43;;;26.10;36.20;;;;;;5047117;28;20461;-50
2021/04/21 10:43:46;;;;;;;18.30;15.13;;;25.60;37.20;;;;;;5044231;28;20954;-51
2021/04/21 10:46:12;;;;;;;22.27;17.67;;;25.00;38.50;;;;;;5048735;28;20489;-50
2021/04/21 10:48:46;;;;;;;18.57;14.67;;;24.30;39.40;;;;;;5046825;28;20442;-51
2021/04/21 10:51:34;;;;;;;19.50;16.37;;;23.70;39.80;;;;;;5062116;28;20448;-50
2021/04/21 10:54:04;;;;;;;19.83;15.77;;;23.10;40.20;;;;;;5047963;28;20938;-50
2021/04/21 10:56:31;;;;;;;20.60;16.20;;;22.60;40.80;;;;;;5044567;28;20466;-51
2021/04/21 10:59:00;;;;;;;24.93;17.67;;;22.20;41.40;;;;;;5047216;28;20875;-51
2021/04/21 11:01:29;;;;;;;18.90;15.77;;;21.80;41.90;;;;;;5049644;28;20482;-51
2021/04/21 11:03:56;;;;;;;22.17;15.70;;;21.60;41.80;;;;;;5047505;28;20464;-51
2021/04/21 11:06:46;;;;;;;16.83;14.73;;;21.60;41.70;;;;;;5050736;28;20490;-51
2021/04/21 11:09:16;;;;;;;14.50;13.00;;;21.70;40.80;;;;;;5046824;28;20871;-51
2021/04/21 11:11:47;;;;;;;17.43;13.53;;;22.00;40.30;;;;;;5046742;28;20437;-51
2021/04/21 11:14:16;;;;;;;14.57;12.50;;;22.30;39.70;;;;;;5047912;28;20488;-51
2021/04/21 11:16:44;;;;;;;15.00;12.57;;;22.70;38.10;;;;;;5048900;28;20577;-50
2021/04/21 11:19:19;;;;;;;13.23;11.67;;;22.90;37.40;;;;;;5049268;28;20591;-50
2021/04/21 11:21:48;;;;;;;16.07;12.27;;;23.00;38.10;;;;;;5045396;28;20460;-51
2021/04/21 11:24:15;;;;;;;16.57;12.10;;;23.20;38.30;;;;;;5044933;28;20458;-51
2021/04/21 11:26:43;;;;;;;17.10;12.20;;;23.30;38.60;;;;;;5045459;28;20486;-50
2021/04/21 11:29:29;;;;;;;15.43;12.03;;;23.50;38.30;;;;;;5047663;28;20457;-50
2021/04/21 11:31:56;;;;;;;15.33;11.70;;;23.60;38.20;;;;;;5045025;28;20465;-50
2021/04/21 11:34:37;;;;;;;13.47;12.07;;;23.70;37.00;;;;;;5051990;28;20983;-51
2021/04/21 11:37:06;;;;;;;12.43;10.80;;;23.50;35.70;;;;;;5050742;28;20909;-50
2021/04/21 11:39:45;;;;;;;12.00;9.73;;;23.30;36.40;;;;;;5053006;28;21015;-50
2021/04/21 11:42:17;;;;;;;16.47;11.50;;;23.10;36.70;;;;;;5054019;28;20480;-51
2021/04/21 11:45:19;;;;;;;14.27;10.77;;;22.90;36.60;;;;;;5048675;28;20493;-49
2021/04/21 11:47:56;;;;;;;11.20;9.93;;;22.60;37.20;;;;;;5055259;28;20454;-50
2021/04/21 11:50:31;;;;;;;12.40;9.67;;;22.40;38.00;;;;;;5053399;28;20493;-50
2021/04/21 11:53:06;;;;;;;11.40;10.00;;;22.30;38.50;;;;;;5054515;28;20485;-50
2021/04/21 11:55:45;;;;;;;13.03;10.00;;;22.00;38.20;;;;;;5052329;28;20825;-50
2021/04/21 11:58:19;;;;;;;10.53;9.23;;;21.90;38.70;;;;;;5055037;28;20461;-50
2021/04/21 12:00:51;;;;;;;11.73;9.70;;;21.80;38.80;;;;;;5053228;28;20457;-50
2021/04/21 12:03:19;;;;;;;12.40;9.80;;;21.80;38.50;;;;;;5052786;28;20465;-51
2021/04/21 12:05:48;;;;;;;10.10;9.00;;;21.80;37.60;;;;;;5069959;28;21121;-50
2021/04/21 12:08:19;;;;;;;11.73;10.20;;;21.70;37.90;;;;;;5048294;28;20454;-49
2021/04/21 12:10:46;;;;;;;10.30;9.20;;;21.60;37.70;;;;;;5051530;28;20450;-51
2021/04/21 12:13:31;;;;;;;9.53;8.63;;;21.60;38.80;;;;;;5057509;28;20459;-50
2021/04/21 12:16:07;;;;;;;10.70;8.57;;;21.70;38.40;;;;;;5053262;28;20495;-50
2021/04/21 12:18:45;;;;;;;11.33;8.80;;;21.90;36.50;;;;;;5051745;28;20588;-50
2021/04/21 12:21:15;;;;;;;8.67;7.13;;;21.90;36.40;;;;;;5050496;28;20472;-51
2021/04/21 12:23:51;;;;;;;9.30;7.93;;;22.00;36.30;;;;;;5065283;28;20553;-51
2021/04/21 12:26:20;;;;;;;8.20;7.10;;;22.20;36.70;;;;;;5053345;28;20853;-51
2021/04/21 12:28:58;;;;;;;7.97;7.20;;;22.40;37.20;;;;;;5069726;28;20441;-50
2021/04/21 12:31:26;;;;;;;9.97;8.80;;;22.60;36.00;;;;;;5053165;28;20811;-50
2021/04/21 12:33:56;;;;;;;13.30;8.47;;;22.80;36.00;;;;;;5054069;28;20961;-50
2021/04/21 12:36:25;;;;;;;12.53;10.30;;;22.90;36.50;;;;;;5054683;28;20454;-50
2021/04/21 12:39:12;;;;;;;11.03;9.83;;;23.00;36.10;;;;;;5055042;28;20718;-50
2021/04/21 12:41:41;;;;;;;10.63;9.47;;;23.20;35.50;;;;;;5054676;28;20441;-49
2021/04/21 12:44:28;;;;;;;10.93;8.43;;;23.40;35.20;;;;;;5066918;28;20811;-49
2021/04/21 12:47:02;;;;;;;10.50;8.87;;;23.60;35.00;;;;;;5045408;28;20489;-50
2021/04/21 12:49:35;;;;;;;14.03;12.00;;;23.70;35.30;;;;;;5045490;28;20461;-50
2021/04/21 12:52:34;;;;;;;11.27;10.20;;;23.80;35.30;;;;;;5047251;28;20544;-50
2021/04/21 12:55:03;;;;;;;11.10;9.00;;;23.90;35.10;;;;;;5050925;28;20460;-50
2021/04/21 12:57:46;;;;;;;8.87;8.07;;;23.90;36.10;;;;;;5048371;28;20454;-50
2021/04/21 13:00:13;;;;;;;8.53;7.73;;;23.90;36.30;;;;;;5067692;28;20454;-50
2021/04/21 13:02:50;;;;;;;8.33;7.50;;;23.90;37.20;;;;;;5053975;28;20524;-49
2021/04/21 13:05:21;;;;;;;7.17;6.47;;;23.80;36.80;;;;;;5049372;28;20486;-50
2021/04/21 13:07:48;;;;;;;7.33;6.63;;;23.80;36.90;;;;;;5050110;28;21051;-50
2021/04/21 13:10:15;;;;;;;8.17;7.37;;;23.70;36.00;;;;;;5067216;28;20453;-50
2021/04/21 13:12:45;;;;;;;9.17;7.30;;;23.70;35.80;;;;;;5049756;28;20456;-50
2021/04/21 13:15:16;;;;;;;8.40;6.93;;;23.60;36.50;;;;;;5049602;28;20505;-50